Time;durP1;ratioP1;P1;durP2;ratioP2;P2;SDS_P1;SDS_P2;PMS_P1;PMS_P2;Temp;Humidity;BMP_temperature;BMP_pressure;BME280_temperature;BME280_humidity;BME280_pressure;Samples;Min_cycle;Max_cycle;Signal;HPM_P1;HPM_P2
2022/01/26 00:06:42;;;;;;;16.80;10.07;;;-1.00;99.90;;;;;;5249822;28;20043;-77
2022/01/26 00:09:14;;;;;;;15.18;8.98;;;-1.00;99.90;;;;;;5249675;28;20096;-76
2022/01/26 00:11:45;;;;;;;19.23;9.40;;;-0.90;99.90;;;;;;5231750;28;20059;-77
2022/01/26 00:14:16;;;;;;;17.33;10.20;;;-1.00;99.90;;;;;;5231661;28;20459;-79
2022/01/26 00:16:46;;;;;;;20.50;10.18;;;-1.00;99.90;;;;;;5231527;28;20048;-79
2022/01/26 00:19:30;;;;;;;12.93;7.63;;;-0.90;99.90;;;;;;5249495;28;20056;-79
2022/01/26 00:22:00;;;;;;;16.33;8.70;;;-1.00;99.90;;;;;;5249429;28;20031;-79
2022/01/26 00:27:30;;;;;;;16.25;8.20;;;-0.90;99.90;;;;;;5248705;28;20442;-79
2022/01/26 00:31:12;;;;;;;15.63;9.07;;;-0.90;99.90;;;;;;5249251;28;20050;-77
2022/01/26 00:34:17;;;;;;;;;;;-1.00;99.90;;;;;;5249379;28;20041;-79
2022/01/26 00:38:49;;;;;;;14.63;8.80;;;-1.00;99.90;;;;;;5249099;28;20035;-79
2022/01/26 00:41:37;;;;;;;18.80;9.73;;;-0.90;99.90;;;;;;5248987;28;20020;-76
2022/01/26 00:44:09;;;;;;;16.55;9.70;;;-0.90;99.90;;;;;;5248894;28;20021;-79
2022/01/26 00:46:47;;;;;;;17.70;9.52;;;-1.10;99.90;;;;;;5248656;28;20028;-76
2022/01/26 00:49:21;;;;;;;14.75;8.52;;;-0.90;99.90;;;;;;5248839;28;20081;-76
2022/01/26 00:51:52;;;;;;;19.48;8.85;;;-0.90;99.90;;;;;;5248788;28;20020;-76
2022/01/26 00:54:23;;;;;;;16.95;8.52;;;-0.90;99.90;;;;;;5248700;28;20459;-77
2022/01/26 00:56:54;;;;;;;16.55;7.60;;;-1.00;99.90;;;;;;5248597;28;20039;-76
2022/01/26 00:59:24;;;;;;;15.88;8.63;;;-1.00;99.90;;;;;;5248674;28;20039;-76
2022/01/26 01:01:56;;;;;;;18.58;8.45;;;-1.00;99.90;;;;;;5248549;28;20383;-76
2022/01/26 01:04:27;;;;;;;22.27;9.73;;;-1.10;99.90;;;;;;5248449;28;20494;-76
2022/01/26 01:07:01;;;;;;;16.80;8.88;;;-1.20;99.90;;;;;;5248349;28;20119;-77
2022/01/26 01:09:34;;;;;;;17.95;9.43;;;-1.10;99.90;;;;;;5248482;28;20368;-79
2022/01/26 01:12:06;;;;;;;20.90;10.43;;;-1.00;99.90;;;;;;5248156;28;20059;-79
2022/01/26 01:14:39;;;;;;;19.73;9.82;;;-1.00;99.90;;;;;;5248395;28;20375;-76
2022/01/26 01:17:20;;;;;;;20.05;9.75;;;-1.20;99.90;;;;;;5248428;28;20082;-77
2022/01/26 01:23:09;;;;;;;15.73;8.93;;;-1.30;99.90;;;;;;5228232;28;20123;-79
2022/01/26 01:31:39;;;;;;;16.27;9.07;;;-1.30;99.90;;;;;;5248328;28;20601;-77
2022/01/26 01:34:12;;;;;;;18.70;9.25;;;-1.60;99.90;;;;;;5247970;28;20021;-77
2022/01/26 01:36:48;;;;;;;15.57;8.40;;;-1.70;99.90;;;;;;5247965;28;20051;-76
2022/01/26 01:39:21;;;;;;;20.88;9.20;;;-1.80;99.90;;;;;;5248123;28;20025;-76
2022/01/26 01:41:52;;;;;;;17.45;9.10;;;-1.70;99.90;;;;;;5247950;28;20024;-76
2022/01/26 01:44:23;;;;;;;17.08;9.27;;;-1.70;99.90;;;;;;5247963;28;20016;-76
2022/01/26 01:46:55;;;;;;;19.17;9.68;;;-1.60;99.90;;;;;;5247787;28;20071;-76
2022/01/26 01:49:26;;;;;;;22.45;10.15;;;-1.70;99.90;;;;;;5247916;28;20153;-76
2022/01/26 01:52:01;;;;;;;19.88;10.18;;;-1.60;99.90;;;;;;5248010;28;20096;-76
2022/01/26 01:54:33;;;;;;;23.63;10.07;;;-1.90;99.90;;;;;;5247887;28;20024;-77
2022/01/26 01:57:03;;;;;;;22.60;12.30;;;-2.00;99.90;;;;;;5247600;28;20407;-79
2022/01/26 01:59:34;;;;;;;20.08;9.73;;;-1.90;99.90;;;;;;5247924;28;20024;-79
2022/01/26 02:02:05;;;;;;;17.55;10.25;;;-1.70;99.90;;;;;;5247893;28;20023;-77
2022/01/26 02:04:36;;;;;;;18.52;9.98;;;-1.80;99.90;;;;;;5247843;28;20490;-79
2022/01/26 02:07:07;;;;;;;19.50;10.38;;;-2.00;99.90;;;;;;5247648;28;20121;-77
2022/01/26 02:09:38;;;;;;;17.00;10.50;;;-1.90;99.90;;;;;;5247815;28;20046;-77
2022/01/26 02:12:18;;;;;;;25.77;13.85;;;-1.80;99.90;;;;;;5247833;28;20107;-79
2022/01/26 02:14:54;;;;;;;17.20;10.13;;;-1.70;99.90;;;;;;5229776;28;20029;-76
2022/01/26 02:21:05;;;;;;;17.30;10.27;;;-1.90;99.90;;;;;;5163375;28;20045;-77
2022/01/26 02:49:39;;;;;;;27.17;13.23;;;-1.90;99.90;;;;;;5167115;28;20421;-76
2022/01/26 03:00:20;;;;;;;17.45;10.70;;;-1.80;99.90;;;;;;5251105;28;20082;-77
2022/01/26 03:05:31;;;;;;;31.58;15.48;;;-1.60;99.90;;;;;;5250883;28;20489;-79
2022/01/26 03:08:06;;;;;;;19.67;11.80;;;-1.50;99.90;;;;;;5234004;28;20047;-77
2022/01/26 03:10:47;;;;;;;20.80;11.70;;;-1.80;99.90;;;;;;5250804;28;20024;-79
2022/01/26 03:13:23;;;;;;;;;;;-1.70;99.90;;;;;;5233236;28;20533;-76
2022/01/26 03:16:03;;;;;;;21.08;11.10;;;-1.70;99.90;;;;;;5250860;28;19911;-77
2022/01/26 03:21:10;;;;;;;20.50;12.13;;;-1.70;99.90;;;;;;5250644;28;20039;-79
2022/01/26 03:34:39;;;;;;;19.98;11.05;;;-2.00;99.90;;;;;;5250225;28;20031;-76
2022/01/26 03:37:10;;;;;;;18.98;11.55;;;-2.00;99.90;;;;;;5250400;28;20460;-79
2022/01/26 03:39:43;;;;;;;17.98;10.15;;;-2.10;99.90;;;;;;5249983;28;20387;-77
2022/01/26 03:42:15;;;;;;;20.23;11.65;;;-2.00;99.90;;;;;;5250280;28;20094;-79
2022/01/26 03:44:46;;;;;;;20.45;10.80;;;-2.00;99.90;;;;;;5250202;28;20367;-78
2022/01/26 03:47:17;;;;;;;19.10;10.57;;;-1.90;99.90;;;;;;5232096;28;20426;-79
2022/01/26 03:49:48;;;;;;;19.02;10.73;;;-2.20;99.90;;;;;;5250152;28;20066;-79
2022/01/26 03:52:19;;;;;;;17.33;10.73;;;-2.30;99.90;;;;;;5250047;28;20447;-78
2022/01/26 03:54:49;;;;;;;19.85;10.52;;;-2.50;99.90;;;;;;5249615;28;20024;-76
2022/01/26 03:57:28;;;;;;;20.75;12.27;;;-2.80;99.90;;;;;;5230699;28;20025;-79
2022/01/26 03:59:59;;;;;;;18.63;10.85;;;-2.70;99.90;;;;;;5250060;28;20047;-78
2022/01/26 04:02:30;;;;;;;22.15;11.30;;;-3.20;99.90;;;;;;5231947;28;20025;-78
2022/01/26 04:05:05;;;;;;;21.00;10.68;;;-3.10;99.90;;;;;;5249790;28;20031;-76
2022/01/26 04:07:36;;;;;;;19.75;10.63;;;-3.10;99.90;;;;;;5249678;28;20531;-77
2022/01/26 04:10:31;;;;;;;17.23;10.35;;;-3.10;99.90;;;;;;5249675;28;20028;-76
2022/01/26 04:12:58;;;;;;;24.92;12.88;;;-3.30;99.90;;;;;;5248964;28;20060;-78
2022/01/26 04:15:32;;;;;;;17.35;10.75;;;-3.00;99.90;;;;;;5249534;28;20052;-78
2022/01/26 04:18:07;;;;;;;20.48;11.35;;;-3.20;99.90;;;;;;5249393;28;20565;-78
2022/01/26 04:20:42;;;;;;;19.17;10.73;;;-3.10;99.90;;;;;;5249488;28;20024;-76
2022/01/26 04:25:51;;;;;;;22.10;11.77;;;-3.80;99.90;;;;;;5249182;28;20442;-78
2022/01/26 04:28:28;;;;;;;18.98;9.95;;;-3.70;99.90;;;;;;5249036;28;20483;-78
2022/01/26 04:30:59;;;;;;;22.20;10.95;;;-3.80;99.90;;;;;;5231345;28;20059;-76
2022/01/26 04:33:33;;;;;;;18.92;10.68;;;-4.10;99.90;;;;;;5249228;28;20423;-77
2022/01/26 05:32:55;;;;;;;19.80;11.20;;;-5.40;99.90;;;;;;5308380;27;20397;-70
2022/01/26 05:35:25;;;;;;;18.27;10.68;;;-5.30;99.90;;;;;;5341488;27;20427;-70
2022/01/26 05:37:56;;;;;;;19.00;10.20;;;-5.40;99.90;;;;;;5308093;28;20027;-70
2022/01/26 05:40:27;;;;;;;18.25;10.48;;;-5.80;99.90;;;;;;5295080;27;20024;-70
2022/01/26 05:42:58;;;;;;;19.73;10.77;;;-5.70;99.90;;;;;;5292917;28;20038;-73
2022/01/26 05:45:34;;;;;;;18.73;10.35;;;-5.70;99.90;;;;;;5295113;28;20085;-74
2022/01/26 05:48:10;;;;;;;18.88;10.80;;;-5.90;99.90;;;;;;5289665;27;20024;-70
2022/01/26 05:50:50;;;;;;;19.50;10.68;;;-6.10;99.90;;;;;;5294935;28;20035;-70
2022/01/26 05:53:21;;;;;;;21.17;11.48;;;-5.90;99.90;;;;;;5294628;28;20031;-69
2022/01/26 05:55:55;;;;;;;18.95;9.88;;;-6.00;99.90;;;;;;5296216;28;20497;-70
2022/01/26 05:58:27;;;;;;;19.02;10.60;;;-6.20;99.90;;;;;;5290346;28;20024;-70
2022/01/26 06:01:00;;;;;;;19.98;10.38;;;-6.10;99.90;;;;;;5295643;28;20122;-70
2022/01/26 06:03:31;;;;;;;25.20;10.48;;;-6.20;99.90;;;;;;5288158;28;20032;-70
2022/01/26 06:06:02;;;;;;;20.55;10.75;;;-6.20;99.90;;;;;;5293477;27;20435;-70
2022/01/26 06:08:33;;;;;;;17.75;10.52;;;-6.20;99.90;;;;;;5292998;27;20028;-70
2022/01/26 06:11:04;;;;;;;20.40;10.40;;;-6.20;99.90;;;;;;5291763;28;20030;-70
2022/01/26 06:13:35;;;;;;;18.58;10.35;;;-6.10;99.90;;;;;;5289233;28;20054;-70
2022/01/26 06:16:06;;;;;;;21.23;11.48;;;-6.30;99.90;;;;;;5306551;27;20488;-72
2022/01/26 06:18:37;;;;;;;16.48;9.93;;;-6.20;99.90;;;;;;5307286;27;20077;-71
2022/01/26 06:21:08;;;;;;;20.52;11.23;;;-6.60;99.90;;;;;;5305872;28;20039;-71
2022/01/26 06:23:39;;;;;;;24.90;11.15;;;-5.70;99.90;;;;;;5307121;27;20019;-71
2022/01/26 06:26:10;;;;;;;17.65;10.48;;;-5.20;99.90;;;;;;5307244;27;20048;-70
2022/01/26 06:28:41;;;;;;;19.02;10.05;;;-5.60;99.90;;;;;;5305919;28;20110;-70
2022/01/26 06:31:15;;;;;;;16.85;10.23;;;-6.00;99.90;;;;;;5306741;27;20095;-70
2022/01/26 06:33:47;;;;;;;19.58;10.27;;;-5.70;99.90;;;;;;5293433;27;20027;-77
2022/01/26 06:36:18;;;;;;;19.60;10.52;;;-5.00;99.90;;;;;;5291659;28;20027;-71
2022/01/26 06:38:49;;;;;;;18.50;10.85;;;-4.90;99.90;;;;;;5292887;28;20019;-71
2022/01/26 06:41:25;;;;;;;21.02;10.93;;;-5.00;99.90;;;;;;5292675;28;20067;-71
2022/01/26 06:44:06;;;;;;;17.77;9.73;;;-4.90;99.90;;;;;;5292739;28;20016;-77
2022/01/26 06:46:50;;;;;;;18.20;9.52;;;-4.40;99.90;;;;;;5292759;28;20061;-77
2022/01/26 06:51:55;;;;;;;16.83;9.00;;;-4.30;99.90;;;;;;5292727;28;20028;-71
2022/01/26 06:54:26;;;;;;;18.15;9.73;;;-3.50;99.90;;;;;;5292566;28;20458;-71
2022/01/26 06:56:57;;;;;;;15.48;9.07;;;-3.60;99.90;;;;;;5291211;28;20034;-71
2022/01/26 06:59:28;;;;;;;17.15;9.02;;;-3.30;99.90;;;;;;5292482;28;20019;-71
2022/01/26 07:01:59;;;;;;;16.52;8.77;;;-3.30;99.90;;;;;;5292071;28;20039;-71
2022/01/26 07:04:29;;;;;;;15.18;9.00;;;-3.00;99.90;;;;;;5291007;28;20731;-77
2022/01/26 07:07:00;;;;;;;15.57;9.07;;;-3.10;99.90;;;;;;5290939;28;20118;-71
2022/01/26 07:09:31;;;;;;;16.55;8.77;;;-2.60;99.90;;;;;;5292419;28;20020;-71
2022/01/26 07:12:02;;;;;;;15.02;8.10;;;-2.40;99.90;;;;;;5292217;28;20044;-71
2022/01/26 07:21:04;;;;;;;15.38;7.85;;;-1.60;99.90;;;;;;5292314;28;20030;-71
2022/01/26 07:23:10;;;;;;;15.30;7.80;;;-1.40;99.90;;;;;;5291674;28;20074;-71
2022/01/26 07:25:41;;;;;;;14.10;7.28;;;-1.60;99.90;;;;;;5291963;28;20047;-71
2022/01/26 07:28:12;;;;;;;14.25;7.35;;;-1.40;99.90;;;;;;5291844;28;20036;-72
2022/01/26 07:30:43;;;;;;;15.50;8.30;;;-1.20;99.90;;;;;;5291417;28;20071;-71
2022/01/26 07:33:14;;;;;;;17.30;8.20;;;-0.50;99.90;;;;;;5291809;28;20475;-71
2022/01/26 07:35:45;;;;;;;12.38;7.10;;;-0.40;99.90;;;;;;5291677;28;20023;-70
2022/01/26 07:38:16;;;;;;;14.80;7.60;;;-0.90;99.90;;;;;;5291671;28;20428;-71
2022/01/26 07:40:47;;;;;;;13.57;7.38;;;-0.30;99.90;;;;;;5291500;28;20035;-71
2022/01/26 07:43:18;;;;;;;16.75;7.20;;;-0.30;99.90;;;;;;5289790;28;20463;-71
2022/01/26 07:45:48;;;;;;;14.50;6.72;;;-0.40;99.90;;;;;;5290769;28;20527;-70
2022/01/26 07:48:19;;;;;;;15.70;7.68;;;-0.30;99.90;;;;;;5291531;28;20489;-70
2022/01/26 07:50:52;;;;;;;14.82;7.22;;;0.00;99.90;;;;;;5291431;28;20016;-69
2022/01/26 07:53:23;;;;;;;16.55;7.57;;;-0.30;96.80;;;;;;5291406;28;20020;-69
2022/01/26 07:55:56;;;;;;;14.48;7.97;;;0.00;96.00;;;;;;5291331;28;20034;-79
2022/01/26 07:58:26;;;;;;;14.20;7.38;;;0.20;95.90;;;;;;5291349;28;20024;-71
2022/01/26 08:00:57;;;;;;;16.48;7.15;;;0.50;92.10;;;;;;5290830;28;20035;-69
2022/01/26 08:03:33;;;;;;;14.13;7.40;;;0.80;90.30;;;;;;5291009;28;20074;-70
2022/01/26 08:06:05;;;;;;;15.95;7.40;;;1.50;82.20;;;;;;5291166;28;20084;-70
2022/01/26 08:08:36;;;;;;;13.40;7.45;;;1.60;76.90;;;;;;5291099;28;20035;-70
2022/01/26 08:11:06;;;;;;;12.38;6.97;;;1.70;75.50;;;;;;5290986;28;20416;-70
2022/01/26 08:13:37;;;;;;;12.05;7.03;;;2.00;75.00;;;;;;5290934;28;20046;-78
2022/01/26 08:16:08;;;;;;;13.32;7.38;;;1.80;70.90;;;;;;5289664;28;20019;-69
2022/01/26 08:18:39;;;;;;;13.82;8.68;;;2.20;71.30;;;;;;5289580;28;20027;-70
2022/01/26 08:21:10;;;;;;;10.80;6.72;;;2.20;70.60;;;;;;5290754;28;20031;-80
2022/01/26 08:23:43;;;;;;;14.40;7.68;;;2.30;68.70;;;;;;5290614;28;20110;-69
2022/01/26 08:26:19;;;;;;;16.27;8.27;;;3.00;69.60;;;;;;5290702;28;20094;-69
2022/01/26 08:28:54;;;;;;;13.65;8.35;;;3.60;67.40;;;;;;5290689;28;20038;-69
2022/01/26 08:31:26;;;;;;;14.98;7.72;;;3.00;66.60;;;;;;5290236;28;20418;-79
2022/01/26 08:33:57;;;;;;;14.88;7.78;;;3.20;64.30;;;;;;5290650;28;20016;-70
2022/01/26 08:36:28;;;;;;;27.73;14.15;;;3.60;62.20;;;;;;5290529;28;20043;-69
2022/01/26 08:38:58;;;;;;;21.02;11.43;;;3.40;63.10;;;;;;5290526;28;20031;-74
2022/01/26 08:41:29;;;;;;;19.27;10.60;;;3.60;63.10;;;;;;5290377;28;20039;-75
2022/01/26 08:44:00;;;;;;;22.23;10.85;;;4.20;62.90;;;;;;5290214;28;20531;-69
2022/01/26 08:46:31;;;;;;;13.73;6.90;;;3.80;63.80;;;;;;5290502;28;20485;-69
2022/01/26 08:49:04;;;;;;;13.50;7.70;;;4.20;62.80;;;;;;5290339;28;20019;-70
2022/01/26 08:51:36;;;;;;;11.30;6.68;;;4.40;61.60;;;;;;5290265;28;20042;-69
2022/01/26 08:54:08;;;;;;;15.52;8.65;;;4.20;62.40;;;;;;5290131;28;20020;-69
2022/01/26 08:56:38;;;;;;;12.13;6.82;;;4.30;62.90;;;;;;5289956;28;20452;-69
2022/01/26 08:59:09;;;;;;;13.50;7.57;;;4.10;61.90;;;;;;5290324;28;20024;-69
2022/01/26 09:01:40;;;;;;;12.20;6.25;;;4.10;62.40;;;;;;5289900;28;20040;-69
2022/01/26 09:04:11;;;;;;;12.18;6.38;;;4.60;61.30;;;;;;5289922;28;20379;-79
2022/01/26 09:06:55;;;;;;;10.27;6.15;;;4.00;60.60;;;;;;5290087;28;20055;-79
2022/01/26 09:09:29;;;;;;;12.55;6.60;;;4.10;61.00;;;;;;5290181;28;20018;-74
2022/01/26 09:12:06;;;;;;;13.68;7.80;;;4.40;60.10;;;;;;5289841;28;20489;-69
2022/01/26 09:14:38;;;;;;;9.88;6.15;;;4.70;59.60;;;;;;5290017;28;20102;-69
2022/01/26 09:17:11;;;;;;;13.57;6.25;;;4.90;57.90;;;;;;5289922;28;20114;-70
2022/01/26 09:19:43;;;;;;;14.07;8.50;;;4.40;55.50;;;;;;5289891;28;20118;-69
2022/01/26 09:22:16;;;;;;;10.38;6.13;;;3.90;55.60;;;;;;5289581;28;20043;-68
2022/01/26 09:24:47;;;;;;;12.18;6.55;;;4.60;54.70;;;;;;5289905;28;20020;-69
2022/01/26 09:27:18;;;;;;;11.50;6.22;;;5.30;57.10;;;;;;5289929;28;20027;-68
2022/01/26 09:29:48;;;;;;;10.73;6.22;;;4.80;56.40;;;;;;5289823;28;20024;-68
2022/01/26 09:32:20;;;;;;;12.05;6.32;;;5.40;57.50;;;;;;5289315;28;20073;-68
2022/01/26 09:34:51;;;;;;;10.98;6.20;;;4.20;54.40;;;;;;5289864;28;20043;-68
2022/01/26 09:37:22;;;;;;;12.02;7.05;;;4.70;54.30;;;;;;5289762;28;20027;-69
2022/01/26 09:39:54;;;;;;;13.73;7.43;;;6.20;54.10;;;;;;5289800;28;20461;-68
2022/01/26 09:42:25;;;;;;;11.00;6.05;;;5.50;54.30;;;;;;5289500;28;20011;-68
2022/01/26 09:44:56;;;;;;;10.00;6.53;;;5.90;53.00;;;;;;5289818;28;20028;-69
2022/01/26 09:47:27;;;;;;;11.38;6.28;;;6.10;52.70;;;;;;5289664;28;20132;-69
2022/01/26 09:49:57;;;;;;;9.25;5.88;;;5.30;51.20;;;;;;5289599;28;20016;-68
2022/01/26 09:52:36;;;;;;;10.52;6.03;;;5.40;51.80;;;;;;5289482;28;20122;-84
2022/01/26 09:55:09;;;;;;;11.63;7.28;;;6.00;52.40;;;;;;5289736;28;20028;-69
2022/01/26 09:57:42;;;;;;;16.17;7.47;;;6.20;55.10;;;;;;5289639;28;20039;-69
2022/01/26 10:00:14;;;;;;;13.98;7.20;;;6.10;53.10;;;;;;5289309;28;20044;-69
2022/01/26 10:02:56;;;;;;;9.80;6.28;;;5.50;55.40;;;;;;5289311;28;20015;-69
2022/01/26 10:05:39;;;;;;;10.30;6.15;;;5.60;56.40;;;;;;5289574;28;20028;-69
2022/01/26 10:08:24;;;;;;;9.95;5.68;;;5.60;56.50;;;;;;5291572;28;20085;-69
2022/01/26 10:19:27;;;;;;;9.77;6.15;;;6.20;55.30;;;;;;5293343;28;20543;-70
2022/01/26 10:21:58;;;;;;;10.82;6.53;;;6.60;54.40;;;;;;5293291;28;20019;-70
2022/01/26 10:24:29;;;;;;;12.52;7.15;;;6.20;53.60;;;;;;5293063;28;20031;-70
2022/01/26 10:27:01;;;;;;;12.45;6.40;;;6.60;54.20;;;;;;5293103;28;20089;-70
2022/01/26 10:29:34;;;;;;;10.65;5.85;;;6.70;53.30;;;;;;5293079;28;20380;-70
2022/01/26 10:32:11;;;;;;;11.25;6.53;;;6.40;54.10;;;;;;5292483;28;20065;-70
2022/01/26 10:34:42;;;;;;;9.05;6.25;;;6.10;53.10;;;;;;5293107;28;20016;-70
2022/01/26 10:37:13;;;;;;;10.68;6.18;;;6.90;53.50;;;;;;5292951;28;20482;-70
2022/01/26 10:39:48;;;;;;;10.43;6.60;;;6.50;53.00;;;;;;5292878;28;20028;-70
2022/01/26 10:42:20;;;;;;;10.75;6.40;;;6.50;53.10;;;;;;5292750;28;20019;-69
2022/01/26 10:45:06;;;;;;;8.75;5.70;;;6.50;54.40;;;;;;5292873;28;20016;-70
2022/01/26 10:47:45;;;;;;;11.13;7.28;;;6.40;55.10;;;;;;5292824;28;20086;-70
2022/01/26 10:50:46;;;;;;;10.20;6.10;;;7.00;52.00;;;;;;5292435;28;20024;-70
2022/01/26 10:53:18;;;;;;;11.88;6.68;;;5.70;51.10;;;;;;5292711;28;20031;-71
2022/01/26 10:55:50;;;;;;;11.82;6.50;;;6.70;56.00;;;;;;5292615;28;20050;-70
2022/01/26 10:58:22;;;;;;;15.45;6.82;;;6.20;55.10;;;;;;5292624;27;20016;-70
2022/01/26 11:00:54;;;;;;;12.30;7.05;;;7.30;55.30;;;;;;5292298;28;20031;-71
2022/01/26 11:03:25;;;;;;;9.77;6.72;;;7.90;53.90;;;;;;5291019;28;20016;-77
2022/01/26 11:05:56;;;;;;;12.50;6.07;;;7.10;53.30;;;;;;5292465;28;20038;-76
2022/01/26 11:08:28;;;;;;;10.75;6.78;;;7.60;50.90;;;;;;5291079;28;20028;-70
2022/01/26 11:10:59;;;;;;;11.85;6.30;;;7.60;54.00;;;;;;5292273;28;20024;-69
2022/01/26 11:13:35;;;;;;;10.13;6.10;;;7.20;53.40;;;;;;5292306;28;20157;-74
2022/01/26 11:16:10;;;;;;;10.68;6.32;;;6.90;54.20;;;;;;5292286;28;20490;-70
2022/01/26 11:18:51;;;;;;;;;;;6.00;56.70;;;;;;5292208;28;20076;-76
2022/01/26 11:21:28;;;;;;;10.35;5.45;;;6.80;60.70;;;;;;5291948;28;20078;-71
2022/01/26 11:24:16;;;;;;;8.85;5.30;;;6.30;58.00;;;;;;5291803;28;20063;-72
2022/01/26 11:27:05;;;;;;;10.32;6.65;;;6.40;58.60;;;;;;5292203;28;20024;-71
2022/01/26 11:29:42;;;;;;;11.40;6.53;;;5.70;60.90;;;;;;5292060;28;20023;-71
2022/01/26 11:32:25;;;;;;;13.88;7.05;;;5.30;62.40;;;;;;5291407;28;20505;-71
2022/01/26 11:34:57;;;;;;;10.77;5.97;;;5.70;63.20;;;;;;5291872;28;20102;-71
2022/01/26 11:37:40;;;;;;;10.07;5.82;;;5.40;64.70;;;;;;5291781;28;20019;-76
2022/01/26 11:46:09;;;;;;;10.25;5.85;;;5.40;68.90;;;;;;5291869;28;20509;-72
2022/01/26 11:48:39;;;;;;;13.50;5.80;;;5.30;65.10;;;;;;5291584;28;20503;-75
2022/01/26 11:51:10;;;;;;;9.73;5.70;;;5.00;65.90;;;;;;5291426;28;20069;-72
2022/01/26 11:53:41;;;;;;;12.57;6.43;;;5.00;70.40;;;;;;5291433;28;20028;-72
2022/01/26 11:56:19;;;;;;;9.45;5.85;;;5.00;69.40;;;;;;5291374;28;20028;-75
2022/01/26 11:58:53;;;;;;;10.60;5.60;;;4.80;68.00;;;;;;5291400;28;20441;-72
2022/01/26 12:01:33;;;;;;;9.48;5.85;;;4.70;69.20;;;;;;5291168;28;20028;-71
2022/01/26 12:04:11;;;;;;;12.10;5.82;;;4.80;72.50;;;;;;5291124;28;20039;-75
2022/01/26 12:06:49;;;;;;;10.95;5.97;;;4.80;72.40;;;;;;5291133;28;20066;-71
2022/01/26 12:09:20;;;;;;;9.65;6.10;;;4.50;75.90;;;;;;5291216;28;20023;-76
2022/01/26 12:11:55;;;;;;;8.85;5.88;;;4.80;74.90;;;;;;5290899;28;20046;-75
2022/01/26 12:14:26;;;;;;;10.23;5.70;;;5.60;73.10;;;;;;5290979;28;20046;-72
2022/01/26 12:16:59;;;;;;;11.05;5.30;;;6.00;70.80;;;;;;5290996;28;20024;-72
2022/01/26 12:19:49;;;;;;;11.82;5.65;;;6.70;69.10;;;;;;5290981;28;20459;-71
2022/01/26 12:38:49;;;;;;;11.18;6.15;;;5.20;77.20;;;;;;5290559;28;20034;-72
2022/01/26 12:44:15;;;;;;;14.93;7.10;;;4.80;72.90;;;;;;5290355;28;20027;-71
2022/01/26 12:46:46;;;;;;;15.60;7.70;;;4.30;77.40;;;;;;5290110;28;20386;-72
2022/01/26 12:49:19;;;;;;;10.23;5.43;;;4.40;79.40;;;;;;5290344;28;20087;-72
2022/01/26 12:51:52;;;;;;;12.10;5.93;;;4.10;78.70;;;;;;5290233;28;20465;-74
2022/01/26 12:54:23;;;;;;;14.48;7.82;;;4.10;79.20;;;;;;5290300;28;20110;-71
2022/01/26 12:57:05;;;;;;;11.93;6.55;;;4.00;78.20;;;;;;5290203;28;20031;-71
2022/01/26 12:59:36;;;;;;;8.82;5.30;;;4.10;86.00;;;;;;5290221;28;20024;-71
2022/01/26 13:02:07;;;;;;;11.82;6.15;;;4.00;82.30;;;;;;5289851;28;20038;-71
2022/01/26 13:04:38;;;;;;;12.00;6.53;;;3.90;82.80;;;;;;5290010;28;20034;-76
2022/01/26 13:07:16;;;;;;;13.05;6.60;;;3.70;80.20;;;;;;5288733;28;20019;-76
2022/01/26 13:09:47;;;;;;;10.00;5.90;;;3.90;86.20;;;;;;5290096;28;20110;-70
2022/01/26 13:12:31;;;;;;;10.48;5.80;;;3.60;90.20;;;;;;5288514;28;20430;-71
2022/01/26 13:15:13;;;;;;;9.52;6.13;;;3.40;97.40;;;;;;5290021;28;20035;-71
2022/01/26 13:17:56;;;;;;;11.90;6.72;;;3.40;95.90;;;;;;5290042;28;20027;-71
2022/01/26 13:20:55;;;;;;;10.98;6.18;;;3.30;99.90;;;;;;5290045;28;20347;-70
2022/01/26 13:26:44;;;;;;;9.80;5.50;;;2.90;99.90;;;;;;5280616;28;20024;-70
2022/01/26 13:29:30;;;;;;;17.35;10.07;;;2.90;99.90;;;;;;5289889;28;20024;-70
2022/01/26 13:37:45;;;;;;;11.00;6.38;;;2.60;99.90;;;;;;5290185;28;20054;-71
2022/01/26 13:40:37;;;;;;;10.40;5.72;;;2.60;99.90;;;;;;5289811;28;20028;-71
2022/01/26 13:51:20;;;;;;;11.07;6.53;;;2.30;99.90;;;;;;5293852;28;20031;-70
2022/01/26 13:53:58;;;;;;;14.88;7.35;;;2.70;99.90;;;;;;5293974;28;20119;-70
2022/01/26 14:01:58;;;;;;;15.15;7.65;;;2.60;99.90;;;;;;5293417;28;20058;-71
2022/01/26 14:04:29;;;;;;;11.65;6.25;;;2.40;99.90;;;;;;5293432;28;20031;-71
2022/01/26 14:07:00;;;;;;;12.45;6.68;;;2.60;99.90;;;;;;5293521;28;20371;-70
2022/01/26 14:09:31;;;;;;;10.73;6.72;;;2.60;99.90;;;;;;5292317;28;20111;-71
2022/01/26 14:12:02;;;;;;;16.48;8.25;;;2.40;99.90;;;;;;5293310;28;20140;-71
2022/01/26 14:14:34;;;;;;;14.75;7.95;;;2.50;99.90;;;;;;5293389;28;20031;-70
2022/01/26 14:17:14;;;;;;;12.90;7.53;;;2.30;99.90;;;;;;5293232;28;20057;-70
2022/01/26 14:20:08;;;;;;;14.90;7.55;;;2.60;99.90;;;;;;5293327;28;20486;-70
2022/01/26 14:23:00;;;;;;;14.48;8.07;;;2.40;99.90;;;;;;5293079;28;20068;-70
2022/01/26 14:25:31;;;;;;;11.95;6.75;;;2.40;99.90;;;;;;5293176;28;20382;-71
2022/01/26 14:28:07;;;;;;;18.00;9.98;;;2.50;99.90;;;;;;5291874;28;20051;-71
2022/01/26 15:50:25;;;;;;;28.20;16.20;;;1.00;99.90;;;;;;5291622;28;20032;-70
2022/01/26 15:53:07;;;;;;;9.90;5.95;;;0.90;99.90;;;;;;5290176;28;20070;-72
2022/01/26 16:07:11;;;;;;;23.55;13.82;;;0.70;99.90;;;;;;5290670;28;20031;-71
2022/01/26 16:20:51;;;;;;;22.80;11.40;;;0.30;99.90;;;;;;5291212;28;20046;-70
2022/01/26 16:35:13;;;;;;;49.10;20.00;;;0.50;99.90;;;;;;5290188;28;20414;-71
2022/01/26 16:37:49;;;;;;;27.60;15.63;;;0.20;99.90;;;;;;5290580;28;20066;-71
2022/01/26 17:03:43;;;;;;;11.63;6.22;;;-0.30;99.90;;;;;;5290275;28;20042;-71
2022/01/26 18:04:11;;;;;;;14.68;8.88;;;-0.20;99.90;;;;;;5289665;28;20489;-70
2022/01/26 18:50:06;;;;;;;34.38;15.85;;;-0.30;99.90;;;;;;5293114;28;20088;-70
2022/01/26 18:52:38;;;;;;;32.33;15.00;;;-0.10;99.90;;;;;;5292606;28;20066;-70
2022/01/26 18:55:12;;;;;;;36.30;16.67;;;-0.20;99.90;;;;;;5292655;28;20069;-70
2022/01/26 18:57:43;;;;;;;39.33;18.80;;;-0.20;99.90;;;;;;5292465;28;20367;-70
2022/01/26 19:00:14;;;;;;;39.88;18.40;;;-0.20;99.90;;;;;;5292419;28;20040;-70
2022/01/26 19:02:45;;;;;;;34.85;18.15;;;-0.20;99.90;;;;;;5292355;28;20019;-70
2022/01/26 19:05:16;;;;;;;34.88;16.55;;;-0.20;99.90;;;;;;5292449;28;20035;-70
2022/01/26 19:07:47;;;;;;;34.92;16.30;;;0.00;99.90;;;;;;5292298;28;20072;-69
2022/01/26 19:10:18;;;;;;;36.70;17.52;;;-0.20;99.90;;;;;;5292344;28;20031;-70
2022/01/26 19:12:50;;;;;;;37.28;18.20;;;-0.20;99.90;;;;;;5292237;28;20040;-70
2022/01/26 19:15:25;;;;;;;34.33;17.77;;;-0.20;99.90;;;;;;5292214;28;20028;-70
2022/01/26 19:18:13;;;;;;;40.03;19.20;;;-0.20;99.90;;;;;;5292122;28;20129;-70
2022/01/26 19:26:44;;;;;;;37.97;19.02;;;-0.50;99.90;;;;;;5272193;28;20024;-70
2022/01/26 19:29:50;;;;;;;35.53;18.13;;;-0.20;99.90;;;;;;5291942;28;20062;-70
2022/01/26 19:46:12;;;;;;;26.17;14.65;;;-0.40;99.90;;;;;;5291678;27;20027;-71
2022/01/26 19:51:35;;;;;;;30.70;15.38;;;-0.70;99.90;;;;;;5291641;28;20721;-72
2022/01/26 19:54:06;;;;;;;44.35;23.42;;;-0.40;99.90;;;;;;5291418;28;20027;-70
2022/01/26 19:56:37;;;;;;;31.73;16.73;;;-0.40;99.90;;;;;;5291356;28;20020;-70
2022/01/26 19:59:07;;;;;;;31.65;15.38;;;-0.20;99.90;;;;;;5291259;28;20027;-70
2022/01/26 20:01:38;;;;;;;30.30;15.15;;;-0.20;99.90;;;;;;5291024;28;20530;-70
2022/01/26 20:04:09;;;;;;;26.85;13.73;;;0.00;99.90;;;;;;5291054;28;20028;-70
2022/01/26 20:06:41;;;;;;;32.17;17.95;;;-0.10;99.90;;;;;;5291372;27;20424;-70
2022/01/26 20:09:23;;;;;;;33.50;16.48;;;-0.40;99.90;;;;;;5291225;28;20047;-70
2022/01/26 20:11:59;;;;;;;30.80;16.20;;;-0.30;99.90;;;;;;5291057;28;20491;-71
2022/01/26 20:14:34;;;;;;;28.77;15.13;;;-0.40;99.90;;;;;;5291062;28;20024;-70
2022/01/26 20:17:08;;;;;;;32.97;16.90;;;-0.40;99.90;;;;;;5291192;28;20019;-70
2022/01/26 20:19:38;;;;;;;28.85;16.08;;;-0.30;99.90;;;;;;5290960;28;20573;-70
2022/01/26 20:22:09;;;;;;;29.65;15.82;;;-0.10;99.90;;;;;;5290866;28;20095;-70
2022/01/26 20:24:40;;;;;;;33.25;17.48;;;-0.20;99.90;;;;;;5290773;28;20020;-70
2022/01/26 20:27:12;;;;;;;31.35;16.75;;;-0.20;99.90;;;;;;5290798;28;20030;-70
2022/01/26 20:29:46;;;;;;;28.70;15.23;;;-0.20;99.90;;;;;;5290723;28;20024;-70
2022/01/26 20:32:18;;;;;;;26.30;14.07;;;-0.20;99.90;;;;;;5290284;28;20081;-70
2022/01/26 20:34:50;;;;;;;24.05;12.98;;;-0.50;99.90;;;;;;5290648;28;20053;-70
2022/01/26 20:37:21;;;;;;;24.30;12.52;;;-0.40;99.90;;;;;;5290621;28;20530;-70
2022/01/26 20:39:54;;;;;;;20.88;11.90;;;-0.30;99.90;;;;;;5290574;28;20019;-70
2022/01/26 20:42:25;;;;;;;23.15;12.63;;;-0.20;99.90;;;;;;5290305;28;20507;-70
2022/01/26 20:44:56;;;;;;;23.45;12.52;;;-0.20;99.90;;;;;;5290482;28;20027;-70
2022/01/26 20:47:27;;;;;;;23.77;13.20;;;-0.20;99.90;;;;;;5290448;28;20042;-71
2022/01/26 20:49:58;;;;;;;26.15;13.90;;;-0.40;99.90;;;;;;5289060;28;20110;-71
2022/01/26 20:52:29;;;;;;;30.75;16.88;;;-0.20;99.90;;;;;;5289758;28;20114;-70